MTN7815 TJBQ-TJSJ
Flight info
| Callsign | MTN7815 |
|---|---|
| Flight time | 0h 29m |
| Altitude | 7000 |
| Route | PEBLO RTE2 BOCCA |
| Aircraft | C208/L-SDFGR/C |
Departure
| Time | 2026-05-03 23:59 |
|---|---|
| Airport | Rafael Hernández International Airport (TJBQ) |
Arrival
| Time | 2026-05-04 00:28 |
|---|---|
| Airport | Luis Munoz Marin International Airport (TJSJ) |
| Time | Latitude | Longitude | Altitude | Speed | Heading |
|---|---|---|---|---|---|
| 2026-05-03 23:44 | 18.49396 | -67.13870 | 234 ft | 0 kts | 159° |
| 2026-05-03 23:53 | 18.49394 | -67.13870 | 234 ft | 1 kts | 187° |
| 2026-05-03 23:53 | 18.49391 | -67.13887 | 235 ft | 5 kts | 265° |
| 2026-05-03 23:53 | 18.49371 | -67.13943 | 235 ft | 12 kts | 232° |
| 2026-05-03 23:53 | 18.49286 | -67.13996 | 235 ft | 17 kts | 230° |
| 2026-05-03 23:54 | 18.49244 | -67.14126 | 237 ft | 21 kts | 253° |
| 2026-05-03 23:54 | 18.49196 | -67.14278 | 240 ft | 23 kts | 253° |
| 2026-05-03 23:54 | 18.49145 | -67.14449 | 243 ft | 26 kts | 251° |
| 2026-05-03 23:54 | 18.49101 | -67.14556 | 245 ft | 4 kts | 212° |
| 2026-05-03 23:55 | 18.49101 | -67.14557 | 245 ft | 0 kts | 210° |
| 2026-05-03 23:56 | 18.49100 | -67.14557 | 245 ft | 1 kts | 210° |
| 2026-05-03 23:57 | 18.49087 | -67.14562 | 240 ft | 4 kts | 190° |
| 2026-05-03 23:57 | 18.49037 | -67.14548 | 246 ft | 13 kts | 151° |
| 2026-05-03 23:57 | 18.49020 | -67.14486 | 245 ft | 0 kts | 71° |
| 2026-05-03 23:57 | 18.49051 | -67.14374 | 243 ft | 35 kts | 72° |
| 2026-05-03 23:58 | 18.49163 | -67.14005 | 240 ft | 68 kts | 72° |
| 2026-05-03 23:58 | 18.49341 | -67.13437 | 232 ft | 92 kts | 70° |
| 2026-05-03 23:58 | 18.49551 | -67.12785 | 323 ft | 95 kts | 72° |
| 2026-05-03 23:58 | 18.49770 | -67.12155 | 436 ft | 95 kts | 73° |
| 2026-05-03 23:59 | 18.49816 | -67.11415 | 458 ft | 105 kts | 89° |
| 2026-05-03 23:59 | 18.49846 | -67.10650 | 586 ft | 105 kts | 86° |
| 2026-05-03 23:59 | 18.49886 | -67.09883 | 719 ft | 104 kts | 86° |
| 2026-05-03 23:59 | 18.49924 | -67.09135 | 853 ft | 101 kts | 85° |
| 2026-05-04 00:00 | 18.49958 | -67.08414 | 975 ft | 95 kts | 87° |
| 2026-05-04 00:00 | 18.49991 | -67.07734 | 1093 ft | 91 kts | 85° |
| 2026-05-04 00:00 | 18.50007 | -67.07086 | 1204 ft | 86 kts | 86° |
| 2026-05-04 00:00 | 18.50026 | -67.06484 | 1317 ft | 78 kts | 85° |
| 2026-05-04 00:01 | 18.50032 | -67.05921 | 1347 ft | 81 kts | 86° |
| 2026-05-04 00:01 | 18.50045 | -67.05322 | 1399 ft | 80 kts | 85° |
| 2026-05-04 00:01 | 18.50058 | -67.04721 | 1420 ft | 83 kts | 86° |
| 2026-05-04 00:01 | 18.50075 | -67.04122 | 1519 ft | 76 kts | 85° |
| 2026-05-04 00:02 | 18.50097 | -67.03555 | 1515 ft | 84 kts | 86° |
| 2026-05-04 00:02 | 18.50119 | -67.02944 | 1594 ft | 84 kts | 86° |
| 2026-05-04 00:02 | 18.50129 | -67.02351 | 1710 ft | 76 kts | 95° |
| 2026-05-04 00:02 | 18.50063 | -67.01795 | 1746 ft | 81 kts | 94° |
| 2026-05-04 00:03 | 18.50012 | -67.01199 | 1837 ft | 82 kts | 93° |
| 2026-05-04 00:03 | 18.49964 | -67.00582 | 1855 ft | 90 kts | 94° |
| 2026-05-04 00:03 | 18.49909 | -66.99933 | 1977 ft | 88 kts | 94° |
| 2026-05-04 00:03 | 18.49860 | -66.99284 | 2061 ft | 92 kts | 94° |
| 2026-05-04 00:04 | 18.49800 | -66.98588 | 2131 ft | 99 kts | 95° |
| 2026-05-04 00:04 | 18.49737 | -66.97843 | 2209 ft | 106 kts | 95° |
| 2026-05-04 00:04 | 18.49670 | -66.97036 | 2280 ft | 114 kts | 95° |
| 2026-05-04 00:04 | 18.49598 | -66.96173 | 2349 ft | 122 kts | 95° |
| 2026-05-04 00:05 | 18.49522 | -66.95260 | 2412 ft | 127 kts | 95° |
| 2026-05-04 00:05 | 18.49445 | -66.94310 | 2476 ft | 132 kts | 95° |
| 2026-05-04 00:05 | 18.49366 | -66.93334 | 2559 ft | 134 kts | 96° |
| 2026-05-04 00:05 | 18.49286 | -66.92352 | 2647 ft | 135 kts | 96° |
| 2026-05-04 00:06 | 18.49207 | -66.91353 | 2726 ft | 138 kts | 96° |
| 2026-05-04 00:06 | 18.49125 | -66.90344 | 2803 ft | 138 kts | 96° |
| 2026-05-04 00:06 | 18.49043 | -66.89329 | 2884 ft | 140 kts | 96° |
| 2026-05-04 00:06 | 18.48960 | -66.88308 | 2961 ft | 140 kts | 96° |
| 2026-05-04 00:07 | 18.48876 | -66.87279 | 3034 ft | 141 kts | 96° |
| 2026-05-04 00:07 | 18.48793 | -66.86247 | 3110 ft | 142 kts | 96° |
| 2026-05-04 00:07 | 18.48709 | -66.85204 | 3187 ft | 144 kts | 96° |
| 2026-05-04 00:07 | 18.48645 | -66.84153 | 3261 ft | 144 kts | 92° |
| 2026-05-04 00:08 | 18.48606 | -66.83095 | 3343 ft | 145 kts | 95° |
| 2026-05-04 00:08 | 18.48553 | -66.82040 | 3454 ft | 143 kts | 94° |
| 2026-05-04 00:08 | 18.48507 | -66.81016 | 3575 ft | 141 kts | 94° |
| 2026-05-04 00:08 | 18.48463 | -66.79984 | 3684 ft | 140 kts | 95° |
| 2026-05-04 00:09 | 18.48419 | -66.78967 | 3800 ft | 138 kts | 94° |
| 2026-05-04 00:09 | 18.48374 | -66.77954 | 3915 ft | 138 kts | 93° |
| 2026-05-04 00:09 | 18.48330 | -66.76947 | 4034 ft | 138 kts | 93° |
| 2026-05-04 00:09 | 18.48288 | -66.75941 | 4152 ft | 137 kts | 94° |
| 2026-05-04 00:10 | 18.48245 | -66.74941 | 4266 ft | 137 kts | 94° |
| 2026-05-04 00:10 | 18.48203 | -66.73943 | 4385 ft | 136 kts | 93° |
| 2026-05-04 00:10 | 18.48160 | -66.72951 | 4506 ft | 135 kts | 93° |
| 2026-05-04 00:10 | 18.48119 | -66.71968 | 4623 ft | 134 kts | 93° |
| 2026-05-04 00:11 | 18.48074 | -66.70990 | 4742 ft | 133 kts | 92° |
| 2026-05-04 00:11 | 18.48032 | -66.70017 | 4863 ft | 133 kts | 92° |
| 2026-05-04 00:11 | 18.47990 | -66.69046 | 4976 ft | 133 kts | 92° |
| 2026-05-04 00:11 | 18.47948 | -66.68050 | 4985 ft | 139 kts | 92° |
| 2026-05-04 00:12 | 18.47901 | -66.67010 | 4995 ft | 145 kts | 92° |
| 2026-05-04 00:12 | 18.47853 | -66.65932 | 5002 ft | 149 kts | 92° |
| 2026-05-04 00:12 | 18.47805 | -66.64823 | 5000 ft | 154 kts | 92° |
| 2026-05-04 00:12 | 18.47756 | -66.63689 | 5001 ft | 156 kts | 92° |
| 2026-05-04 00:13 | 18.47705 | -66.62544 | 4997 ft | 157 kts | 92° |
| 2026-05-04 00:13 | 18.47655 | -66.61389 | 4998 ft | 159 kts | 92° |
| 2026-05-04 00:13 | 18.47603 | -66.60224 | 5000 ft | 160 kts | 92° |
| 2026-05-04 00:13 | 18.47539 | -66.59055 | 4998 ft | 160 kts | 93° |
| 2026-05-04 00:14 | 18.47466 | -66.57886 | 4998 ft | 160 kts | 93° |
| 2026-05-04 00:14 | 18.47397 | -66.56728 | 4999 ft | 161 kts | 93° |
| 2026-05-04 00:14 | 18.47326 | -66.55547 | 5005 ft | 162 kts | 93° |
| 2026-05-04 00:14 | 18.47255 | -66.54362 | 5002 ft | 162 kts | 94° |
| 2026-05-04 00:15 | 18.47184 | -66.53176 | 5001 ft | 162 kts | 94° |
| 2026-05-04 00:15 | 18.47113 | -66.51991 | 5002 ft | 162 kts | 93° |
| 2026-05-04 00:15 | 18.47043 | -66.50807 | 4999 ft | 162 kts | 93° |
| 2026-05-04 00:15 | 18.46972 | -66.49624 | 4999 ft | 161 kts | 93° |
| 2026-05-04 00:16 | 18.46901 | -66.48447 | 5002 ft | 161 kts | 93° |
| 2026-05-04 00:16 | 18.46831 | -66.47268 | 4998 ft | 161 kts | 93° |
| 2026-05-04 00:16 | 18.46760 | -66.46092 | 4998 ft | 161 kts | 93° |
| 2026-05-04 00:16 | 18.46690 | -66.44915 | 4994 ft | 161 kts | 93° |
| 2026-05-04 00:17 | 18.46619 | -66.43740 | 4994 ft | 160 kts | 93° |
| 2026-05-04 00:17 | 18.46548 | -66.42570 | 4996 ft | 160 kts | 94° |
| 2026-05-04 00:17 | 18.46479 | -66.41396 | 4994 ft | 161 kts | 94° |
| 2026-05-04 00:17 | 18.46407 | -66.40221 | 4990 ft | 161 kts | 93° |
| 2026-05-04 00:18 | 18.46336 | -66.39050 | 4994 ft | 160 kts | 94° |
| 2026-05-04 00:18 | 18.46264 | -66.37882 | 4989 ft | 160 kts | 94° |
| 2026-05-04 00:18 | 18.46194 | -66.36709 | 4989 ft | 161 kts | 94° |
| 2026-05-04 00:18 | 18.46122 | -66.35512 | 4871 ft | 169 kts | 93° |
| 2026-05-04 00:19 | 18.46046 | -66.34280 | 4653 ft | 166 kts | 94° |
| 2026-05-04 00:19 | 18.45973 | -66.33089 | 4419 ft | 160 kts | 94° |
| 2026-05-04 00:19 | 18.45903 | -66.31930 | 4191 ft | 157 kts | 95° |
| 2026-05-04 00:19 | 18.45834 | -66.30786 | 3979 ft | 156 kts | 95° |
| 2026-05-04 00:20 | 18.45765 | -66.29656 | 3756 ft | 153 kts | 95° |
| 2026-05-04 00:20 | 18.45697 | -66.28534 | 3535 ft | 154 kts | 95° |
| 2026-05-04 00:20 | 18.45630 | -66.27415 | 3323 ft | 153 kts | 96° |
| 2026-05-04 00:20 | 18.45561 | -66.26305 | 3099 ft | 150 kts | 95° |
| 2026-05-04 00:21 | 18.45495 | -66.25255 | 2991 ft | 138 kts | 95° |
| 2026-05-04 00:21 | 18.45440 | -66.24300 | 2981 ft | 124 kts | 96° |
| 2026-05-04 00:21 | 18.45387 | -66.23433 | 2980 ft | 115 kts | 96° |
| 2026-05-04 00:21 | 18.45292 | -66.22624 | 2982 ft | 109 kts | 102° |
| 2026-05-04 00:22 | 18.45165 | -66.21807 | 2994 ft | 117 kts | 101° |
| 2026-05-04 00:22 | 18.45028 | -66.20939 | 3013 ft | 124 kts | 101° |
| 2026-05-04 00:22 | 18.44886 | -66.20028 | 3006 ft | 127 kts | 101° |
| 2026-05-04 00:22 | 18.44746 | -66.19120 | 3000 ft | 124 kts | 100° |
| 2026-05-04 00:23 | 18.44613 | -66.18235 | 2992 ft | 120 kts | 101° |
| 2026-05-04 00:23 | 18.44485 | -66.17399 | 2983 ft | 112 kts | 100° |
| 2026-05-04 00:23 | 18.44368 | -66.16622 | 2969 ft | 104 kts | 101° |
| 2026-05-04 00:23 | 18.44256 | -66.15839 | 2794 ft | 112 kts | 100° |
| 2026-05-04 00:24 | 18.44161 | -66.14957 | 2439 ft | 130 kts | 96° |
| 2026-05-04 00:24 | 18.44059 | -66.14026 | 2301 ft | 122 kts | 99° |
| 2026-05-04 00:24 | 18.43942 | -66.13135 | 2039 ft | 125 kts | 99° |
| 2026-05-04 00:24 | 18.43802 | -66.12247 | 1776 ft | 124 kts | 101° |
| 2026-05-04 00:25 | 18.43661 | -66.11363 | 1563 ft | 121 kts | 101° |
| 2026-05-04 00:25 | 18.43547 | -66.10483 | 1341 ft | 119 kts | 98° |
| 2026-05-04 00:25 | 18.43463 | -66.09637 | 1189 ft | 115 kts | 97° |
| 2026-05-04 00:25 | 18.43400 | -66.08824 | 1125 ft | 108 kts | 94° |
| 2026-05-04 00:26 | 18.43387 | -66.08038 | 999 ft | 108 kts | 90° |
| 2026-05-04 00:26 | 18.43394 | -66.07260 | 921 ft | 104 kts | 91° |
| 2026-05-04 00:26 | 18.43380 | -66.06503 | 805 ft | 102 kts | 92° |
| 2026-05-04 00:26 | 18.43364 | -66.05770 | 766 ft | 100 kts | 90° |
| 2026-05-04 00:27 | 18.43344 | -66.05032 | 761 ft | 102 kts | 92° |
| 2026-05-04 00:27 | 18.43351 | -66.04249 | 634 ft | 114 kts | 89° |
| 2026-05-04 00:27 | 18.43351 | -66.03457 | 487 ft | 103 kts | 89° |
| 2026-05-04 00:27 | 18.43344 | -66.02734 | 321 ft | 94 kts | 90° |
| 2026-05-04 00:28 | 18.43351 | -66.02084 | 214 ft | 84 kts | 89° |
| 2026-05-04 00:28 | 18.43358 | -66.01484 | 71 ft | 80 kts | 90° |
| 2026-05-04 00:28 | 18.43358 | -66.00926 | 17 ft | 70 kts | 90° |
| 2026-05-04 00:28 | 18.43352 | -66.00511 | 16 ft | 41 kts | 91° |
| 2026-05-04 00:29 | 18.43373 | -66.00289 | 15 ft | 23 kts | 69° |
| 2026-05-04 00:29 | 18.43410 | -66.00217 | 16 ft | 0 kts | 61° |
| 2026-05-04 00:29 | 18.43411 | -66.00216 | 16 ft | 2 kts | 61° |
| 2026-05-04 00:30 | 18.43428 | -66.00185 | 17 ft | 8 kts | 59° |
| 2026-05-04 00:30 | 18.43462 | -66.00111 | 17 ft | 14 kts | 80° |
| 2026-05-04 00:30 | 18.43461 | -65.99987 | 18 ft | 19 kts | 89° |
| 2026-05-04 00:30 | 18.43505 | -65.99912 | 17 ft | 9 kts | 5° |
| 2026-05-04 00:31 | 18.43560 | -65.99870 | 17 ft | 14 kts | 81° |
| 2026-05-04 00:31 | 18.43623 | -65.99817 | 17 ft | 7 kts | 9° |
| 2026-05-04 00:31 | 18.43632 | -65.99816 | 17 ft | 0 kts | 359° |